createdAt,value
2022-12-23T00:01:56.222Z,4.00
2022-12-23T00:04:23.475Z,3.90
2022-12-23T00:06:50.343Z,3.90
2022-12-23T00:09:17.380Z,3.90
2022-12-23T00:12:04.146Z,3.90
2022-12-23T00:14:51.278Z,3.90
2022-12-23T00:17:22.491Z,3.90
2022-12-23T00:19:50.259Z,3.90
2022-12-23T00:22:17.400Z,3.90
2022-12-23T00:24:44.314Z,3.90
2022-12-23T00:27:11.195Z,3.90
2022-12-23T00:29:38.045Z,3.90
2022-12-23T00:32:05.230Z,3.90
2022-12-23T00:34:32.436Z,3.90
2022-12-23T00:36:59.383Z,3.80
2022-12-23T00:39:44.833Z,3.80
2022-12-23T00:42:30.184Z,3.90
2022-12-23T00:45:15.846Z,3.90
2022-12-23T00:48:04.228Z,3.90
2022-12-23T00:50:31.366Z,3.90
2022-12-23T00:52:58.304Z,3.90
2022-12-23T00:55:25.523Z,3.90
2022-12-23T00:57:52.893Z,3.80
2022-12-23T01:00:19.934Z,3.80
2022-12-23T01:03:05.501Z,3.90
2022-12-23T01:05:38.308Z,3.90
2022-12-23T01:08:12.030Z,3.90
2022-12-23T01:10:39.958Z,3.90
2022-12-23T01:13:07.147Z,3.80
2022-12-23T01:15:34.535Z,3.80
2022-12-23T01:18:01.546Z,3.90
2022-12-23T01:20:28.720Z,3.90
2022-12-23T01:22:55.570Z,3.90
2022-12-23T01:25:23.405Z,3.90
2022-12-23T01:27:50.294Z,3.90
2022-12-23T01:30:17.328Z,3.90
2022-12-23T01:32:44.536Z,3.80
2022-12-23T01:35:13.538Z,3.80
2022-12-23T01:37:40.656Z,3.80
2022-12-23T01:40:08.071Z,3.80
2022-12-23T01:42:43.728Z,3.90
2022-12-23T01:45:15.490Z,3.90
2022-12-23T01:47:42.357Z,3.80
2022-12-23T01:50:24.330Z,3.80
2022-12-23T01:53:00.515Z,3.80
2022-12-23T01:55:33.299Z,3.80
2022-12-23T01:58:26.602Z,3.80
2022-12-23T02:01:12.662Z,3.80
2022-12-23T02:03:43.168Z,3.80
2022-12-23T02:06:38.263Z,3.80
2022-12-23T02:09:18.745Z,3.90
2022-12-23T02:11:51.795Z,3.80
2022-12-23T02:14:49.631Z,3.80
2022-12-23T02:17:29.684Z,3.80
2022-12-23T02:19:59.484Z,3.90
2022-12-23T02:22:44.791Z,3.80
2022-12-23T02:25:30.851Z,3.80
2022-12-23T02:28:03.657Z,3.80
2022-12-23T02:30:40.180Z,3.80
2022-12-23T02:33:27.364Z,3.80
2022-12-23T02:35:57.890Z,3.80
2022-12-23T02:38:24.744Z,3.80
2022-12-23T02:40:51.622Z,3.90
2022-12-23T02:43:25.035Z,3.80
2022-12-23T02:45:59.333Z,3.80
2022-12-23T02:48:36.163Z,3.90
2022-12-23T02:51:04.723Z,3.90
2022-12-23T02:53:34.087Z,3.90
2022-12-23T02:56:02.285Z,3.90
2022-12-23T02:58:34.223Z,3.90
2022-12-23T03:01:01.902Z,3.90
2022-12-23T03:03:29.319Z,3.90
2022-12-23T03:05:56.407Z,3.90
2022-12-23T03:08:26.583Z,3.90
2022-12-23T03:11:10.860Z,3.90
2022-12-23T03:13:56.370Z,3.90
2022-12-23T03:16:29.474Z,3.90
2022-12-23T03:18:56.548Z,4.00
2022-12-23T03:21:41.749Z,4.00
2022-12-23T03:24:17.892Z,4.00
2022-12-23T03:26:53.912Z,4.00
2022-12-23T03:29:28.793Z,4.10
2022-12-23T03:31:57.020Z,4.10
2022-12-23T03:34:26.349Z,4.10
2022-12-23T03:36:55.187Z,4.10
2022-12-23T03:39:23.613Z,4.10
2022-12-23T03:41:54.226Z,4.10
2022-12-23T03:44:23.788Z,4.10
2022-12-23T03:46:54.437Z,4.10
2022-12-23T03:49:28.415Z,4.10
2022-12-23T03:52:04.371Z,4.20
2022-12-23T03:54:33.203Z,4.20
2022-12-23T03:57:02.516Z,4.20
2022-12-23T03:59:34.766Z,4.20
2022-12-23T04:02:07.334Z,4.20
2022-12-23T04:04:51.571Z,4.20
2022-12-23T04:07:27.048Z,4.30
2022-12-23T04:09:54.447Z,4.30
2022-12-23T04:12:23.678Z,4.30
2022-12-23T04:14:51.054Z,4.30
2022-12-23T04:17:18.116Z,4.30
2022-12-23T04:19:46.248Z,4.20
2022-12-23T04:22:13.916Z,4.30
2022-12-23T04:24:41.091Z,4.30
2022-12-23T04:27:08.550Z,4.30
2022-12-23T04:29:35.397Z,4.30
2022-12-23T04:32:03.039Z,4.30
2022-12-23T04:34:30.171Z,4.30
2022-12-23T04:36:57.128Z,4.20
2022-12-23T04:39:24.245Z,4.10
2022-12-23T04:41:51.268Z,4.20
2022-12-23T04:44:18.260Z,4.10
2022-12-23T04:46:45.537Z,4.10
2022-12-23T04:49:12.694Z,4.10
2022-12-23T04:51:39.995Z,4.00
2022-12-23T04:54:06.829Z,3.70
2022-12-23T04:56:33.903Z,3.20
2022-12-23T04:59:02.634Z,2.90
2022-12-23T05:01:29.940Z,2.60
2022-12-23T05:03:57.136Z,2.40
2022-12-23T05:06:24.732Z,2.20
2022-12-23T05:08:52.065Z,2.10
2022-12-23T05:11:19.085Z,2.00
2022-12-23T05:13:46.207Z,1.90
2022-12-23T05:16:13.201Z,1.80
2022-12-23T05:18:40.368Z,1.80
2022-12-23T05:21:07.201Z,1.70
2022-12-23T05:23:34.066Z,1.60
2022-12-23T05:26:00.985Z,1.60
2022-12-23T05:28:30.024Z,1.50
2022-12-23T05:31:04.790Z,1.50
2022-12-23T05:33:31.802Z,1.50
2022-12-23T05:35:58.806Z,1.50
2022-12-23T05:38:25.927Z,1.40
2022-12-23T05:40:53.516Z,1.40
2022-12-23T05:43:20.994Z,1.30
2022-12-23T05:45:48.438Z,1.30
2022-12-23T05:48:15.501Z,1.20
2022-12-23T05:50:42.887Z,1.10
2022-12-23T05:53:09.738Z,1.10
2022-12-23T05:55:37.002Z,1.00
2022-12-23T05:58:04.454Z,1.10
2022-12-23T06:00:31.328Z,1.10
2022-12-23T06:02:58.513Z,1.00
2022-12-23T06:05:25.494Z,1.10
2022-12-23T06:07:52.679Z,1.10
2022-12-23T06:10:19.793Z,1.10
2022-12-23T06:12:48.694Z,1.10
2022-12-23T06:15:16.102Z,1.10
2022-12-23T06:17:43.475Z,1.10
2022-12-23T06:20:17.854Z,1.10
2022-12-23T06:22:46.763Z,1.10
2022-12-23T06:25:13.635Z,1.10
2022-12-23T06:27:40.683Z,1.10
2022-12-23T06:30:08.290Z,1.00
2022-12-23T06:32:38.634Z,1.00
2022-12-23T06:35:06.774Z,1.00
2022-12-23T06:37:33.676Z,1.00
2022-12-23T06:40:00.988Z,0.90
2022-12-23T06:42:28.269Z,1.00
2022-12-23T06:44:55.232Z,1.00
2022-12-23T06:47:22.491Z,0.90
2022-12-23T06:49:49.313Z,1.00
2022-12-23T06:52:16.368Z,0.90
2022-12-23T06:54:43.243Z,0.90
2022-12-23T06:57:10.345Z,0.90
2022-12-23T06:59:37.395Z,0.80
2022-12-23T07:02:04.974Z,0.80
2022-12-23T07:04:36.399Z,0.80
2022-12-23T07:07:03.257Z,0.90
2022-12-23T07:09:30.173Z,0.80
2022-12-23T07:11:57.261Z,0.80
2022-12-23T07:14:24.063Z,0.70
2022-12-23T07:16:51.196Z,0.70
2022-12-23T07:19:18.506Z,0.70
2022-12-23T07:21:45.592Z,0.70
2022-12-23T07:24:12.555Z,0.70
2022-12-23T07:26:39.405Z,0.70
2022-12-23T07:29:06.420Z,0.70
2022-12-23T07:31:33.289Z,0.80
2022-12-23T07:34:00.733Z,0.70
2022-12-23T07:36:27.603Z,0.70
2022-12-23T07:38:54.873Z,0.70
2022-12-23T07:41:21.847Z,0.70
2022-12-23T07:43:48.690Z,0.70
2022-12-23T07:46:15.679Z,0.70
2022-12-23T07:48:42.994Z,0.70
2022-12-23T07:51:09.908Z,0.70
2022-12-23T07:53:36.919Z,0.70
2022-12-23T07:56:03.860Z,0.70
2022-12-23T07:58:30.736Z,0.70
2022-12-23T08:01:04.354Z,0.60
2022-12-23T08:03:31.621Z,0.70
2022-12-23T08:06:02.677Z,0.70
2022-12-23T08:08:29.820Z,0.70
2022-12-23T08:11:00.948Z,0.70
2022-12-23T08:13:27.888Z,0.70
2022-12-23T08:15:58.517Z,0.70
2022-12-23T08:18:25.890Z,0.70
2022-12-23T08:20:56.930Z,0.70
2022-12-23T08:23:25.533Z,0.60
2022-12-23T08:26:01.623Z,0.70
2022-12-23T08:28:29.083Z,0.70
2022-12-23T08:30:56.090Z,0.70
2022-12-23T08:33:23.063Z,0.60
2022-12-23T08:35:53.570Z,0.50
2022-12-23T08:38:20.677Z,0.50
2022-12-23T08:40:47.472Z,0.40
2022-12-23T08:43:15.005Z,0.40
2022-12-23T08:45:41.861Z,0.40
2022-12-23T08:48:08.773Z,0.30
2022-12-23T08:50:39.559Z,0.40
2022-12-23T08:53:07.073Z,0.30
2022-12-23T08:55:40.115Z,0.30
2022-12-23T08:58:07.113Z,0.20
2022-12-23T09:00:34.405Z,0.20
2022-12-23T09:03:01.325Z,0.10
2022-12-23T09:05:28.455Z,0.10
2022-12-23T09:07:55.336Z,0.10
2022-12-23T09:10:23.366Z,0.10
2022-12-23T09:12:50.459Z,0.10
2022-12-23T09:15:17.501Z,0.10
2022-12-23T09:17:44.767Z,0.10
2022-12-23T09:20:11.802Z,0.10
2022-12-23T09:22:38.764Z,0.10
2022-12-23T09:25:05.795Z,0.00
2022-12-23T09:27:32.653Z,0.10
2022-12-23T09:29:59.476Z,0.20
2022-12-23T09:32:26.349Z,0.10
2022-12-23T09:34:54.288Z,0.10
2022-12-23T09:37:21.217Z,0.10
2022-12-23T09:39:48.043Z,0.00
2022-12-23T09:42:27.166Z,0.00
2022-12-23T09:45:03.982Z,0.10
2022-12-23T09:47:36.112Z,0.10
2022-12-23T09:50:16.258Z,0.10
2022-12-23T09:52:46.965Z,0.10
2022-12-23T09:55:15.061Z,0.10
2022-12-23T09:58:03.539Z,0.10
2022-12-23T10:00:35.511Z,0.10
2022-12-23T10:03:13.329Z,0.10
2022-12-23T10:06:19.259Z,0.00
2022-12-23T10:08:47.791Z,-0.10
2022-12-23T10:11:35.547Z,-0.10
2022-12-23T10:14:04.727Z,-0.10
2022-12-23T10:16:38.263Z,0.00
2022-12-23T10:19:18.283Z,0.00
2022-12-23T10:21:48.376Z,-0.10
2022-12-23T10:24:15.394Z,0.00
2022-12-23T10:27:02.419Z,0.00
2022-12-23T10:29:33.347Z,-0.10
2022-12-23T10:32:18.925Z,-0.10
2022-12-23T10:34:45.781Z,-0.10
2022-12-23T10:37:20.850Z,-0.10
2022-12-23T10:39:47.657Z,-0.10
2022-12-23T10:42:20.874Z,-0.10
2022-12-23T10:45:08.066Z,-0.10
2022-12-23T10:47:40.067Z,-0.10
2022-12-23T10:50:33.544Z,-0.10
2022-12-23T10:53:02.798Z,-0.10
2022-12-23T10:55:34.227Z,-0.10
2022-12-23T10:58:14.830Z,-0.10
2022-12-23T11:00:44.683Z,0.10
2022-12-23T11:03:15.520Z,0.10
2022-12-23T11:05:43.442Z,0.00
2022-12-23T11:08:10.890Z,-0.10
2022-12-23T11:10:39.175Z,-0.10
2022-12-23T11:13:06.091Z,-0.10
2022-12-23T11:15:34.965Z,-0.10
2022-12-23T11:18:01.789Z,0.00
2022-12-23T11:20:29.412Z,-0.10
2022-12-23T11:22:58.780Z,-0.10
2022-12-23T11:25:39.488Z,-0.10
2022-12-23T11:28:06.400Z,-0.10
2022-12-23T11:30:36.684Z,-0.10
2022-12-23T11:33:03.934Z,0.00
2022-12-23T11:35:32.445Z,0.00
2022-12-23T11:38:01.081Z,0.00
2022-12-23T11:40:30.280Z,-0.10
2022-12-23T11:43:10.425Z,-0.10
2022-12-23T11:45:38.146Z,-0.10
2022-12-23T11:48:26.405Z,0.00
2022-12-23T11:51:01.211Z,0.00
2022-12-23T11:53:28.302Z,0.00
2022-12-23T11:56:01.236Z,0.00
2022-12-23T11:58:29.366Z,0.00
2022-12-23T12:00:57.567Z,0.00
2022-12-23T12:03:31.005Z,0.00
2022-12-23T12:05:59.315Z,0.10
2022-12-23T12:08:33.263Z,0.10
2022-12-23T12:11:02.235Z,-0.10
2022-12-23T12:13:40.505Z,-0.10
2022-12-23T12:16:14.367Z,-0.10
2022-12-23T12:18:42.858Z,-0.20
2022-12-23T12:21:13.189Z,-0.20
2022-12-23T12:23:44.435Z,-0.20
2022-12-23T12:26:31.489Z,-0.30
2022-12-23T12:29:21.852Z,-0.40
2022-12-23T12:31:51.207Z,-0.40
2022-12-23T12:34:36.890Z,-0.40
2022-12-23T12:37:10.232Z,-0.40
2022-12-23T12:39:49.256Z,-0.30
2022-12-23T12:42:19.259Z,-0.40
2022-12-23T12:44:55.978Z,-0.40
2022-12-23T12:50:15.664Z,-0.30
2022-12-23T12:52:43.687Z,-0.40
2022-12-23T12:55:13.738Z,-0.40
2022-12-23T12:57:41.147Z,-0.40
2022-12-23T13:00:20.488Z,-0.30
2022-12-23T13:02:56.509Z,-0.30
2022-12-23T13:05:43.428Z,-0.30
2022-12-23T13:08:19.619Z,-0.30
2022-12-23T13:10:52.537Z,-0.40
2022-12-23T13:13:19.454Z,-0.40
2022-12-23T13:15:49.723Z,-0.60
2022-12-23T13:18:20.735Z,-0.60
2022-12-23T13:20:53.657Z,-0.60
2022-12-23T13:23:45.488Z,-0.50
2022-12-23T13:26:22.220Z,-0.60
2022-12-23T13:29:08.013Z,-0.70
2022-12-23T13:31:44.463Z,-0.70
2022-12-23T13:34:11.591Z,-0.70
2022-12-23T13:36:49.566Z,-0.70
2022-12-23T13:39:22.616Z,-0.80
2022-12-23T13:41:50.856Z,-0.80
2022-12-23T13:44:19.002Z,-0.80
2022-12-23T13:46:57.657Z,-0.90
2022-12-23T13:49:33.725Z,-1.10
2022-12-23T13:52:15.639Z,-1.00
2022-12-23T13:54:42.452Z,-1.10
2022-12-23T13:57:18.514Z,-1.10
2022-12-23T14:00:04.909Z,-1.20
2022-12-23T14:02:36.148Z,-1.20
2022-12-23T14:05:04.600Z,-1.20
2022-12-23T14:07:33.300Z,-1.30
2022-12-23T14:10:10.487Z,-1.30
2022-12-23T14:12:39.698Z,-1.30
2022-12-23T14:15:22.065Z,-1.40
2022-12-23T14:18:02.444Z,-1.30
2022-12-23T14:20:43.892Z,-1.40
2022-12-23T14:23:21.631Z,-1.50
2022-12-23T14:26:03.148Z,-1.50
2022-12-23T14:28:30.031Z,-1.60
2022-12-23T14:30:57.213Z,-1.50
2022-12-23T14:33:26.498Z,-1.50
2022-12-23T14:35:56.539Z,-1.50
2022-12-23T14:38:24.988Z,-1.40
2022-12-23T14:40:57.882Z,-1.50
2022-12-23T14:43:30.560Z,-1.60
2022-12-23T14:46:05.534Z,-1.60
2022-12-23T14:48:44.644Z,-1.70
2022-12-23T14:51:15.385Z,-1.80
2022-12-23T14:54:11.467Z,-1.70
2022-12-23T14:56:42.306Z,-1.80
2022-12-23T14:59:27.667Z,-1.80
2022-12-23T15:01:59.124Z,-1.80
2022-12-23T15:04:28.669Z,-1.80
2022-12-23T15:06:59.057Z,-1.90
2022-12-23T15:09:27.698Z,-1.90
2022-12-23T15:11:55.578Z,-2.00
2022-12-23T15:14:35.970Z,-2.00
2022-12-23T15:17:22.461Z,-2.00
2022-12-23T15:19:49.869Z,-2.10
2022-12-23T15:22:23.639Z,-2.00
2022-12-23T15:24:55.433Z,-2.00
2022-12-23T15:27:27.824Z,-2.10
2022-12-23T15:29:56.383Z,-2.10
2022-12-23T15:32:24.529Z,-2.10
2022-12-23T15:34:52.145Z,-2.10
2022-12-23T15:37:24.808Z,-2.20
2022-12-23T15:39:57.961Z,-2.20
2022-12-23T15:42:32.953Z,-2.20
2022-12-23T15:45:00.286Z,-2.30
2022-12-23T15:47:39.645Z,-2.20
2022-12-23T15:50:12.883Z,-2.20
2022-12-23T15:52:40.906Z,-2.30
2022-12-23T15:55:11.605Z,-2.30
2022-12-23T15:57:48.192Z,-2.30
2022-12-23T16:00:21.991Z,-2.40
2022-12-23T16:03:11.856Z,-2.40
2022-12-23T16:05:38.863Z,-2.40
2022-12-23T16:08:16.340Z,-2.30
2022-12-23T16:10:55.376Z,-2.40
2022-12-23T16:13:22.299Z,-2.40
2022-12-23T16:15:49.306Z,-2.30
2022-12-23T16:18:19.398Z,-2.40
2022-12-23T16:20:51.085Z,-2.40
2022-12-23T16:23:18.056Z,-2.50
2022-12-23T16:25:50.214Z,-2.60
2022-12-23T16:28:28.283Z,-2.70
2022-12-23T16:30:56.505Z,-2.60
2022-12-23T16:36:33.485Z,-2.70
2022-12-23T16:39:26.683Z,-2.80
2022-12-23T16:41:53.591Z,-2.80
2022-12-23T16:44:20.461Z,-2.70
2022-12-23T16:46:48.647Z,-2.70
2022-12-23T16:49:17.000Z,-2.70
2022-12-23T16:51:44.025Z,-2.70
2022-12-23T16:54:15.578Z,-2.70
2022-12-23T16:56:43.415Z,-2.80
2022-12-23T16:59:10.353Z,-2.80
2022-12-23T17:01:38.463Z,-2.80
2022-12-23T17:04:06.018Z,-2.90
2022-12-23T17:06:33.371Z,-3.00
2022-12-23T17:09:00.333Z,-3.10
2022-12-23T17:11:33.498Z,-3.10
2022-12-23T17:14:05.600Z,-3.00
2022-12-23T17:16:34.816Z,-3.00
2022-12-23T17:19:01.759Z,-3.10
2022-12-23T17:21:33.676Z,-3.00
2022-12-23T17:24:20.767Z,-3.00
2022-12-23T17:26:47.665Z,-3.10
2022-12-23T17:29:14.588Z,-3.10
2022-12-23T17:31:42.390Z,-3.20
2022-12-23T17:34:19.841Z,-3.20
2022-12-23T17:36:50.231Z,-3.20
2022-12-23T17:39:18.574Z,-3.20
2022-12-23T17:41:46.023Z,-3.20
2022-12-23T17:44:17.180Z,-3.20
2022-12-23T17:46:44.858Z,-3.30
2022-12-23T17:49:11.750Z,-3.20
2022-12-23T17:51:40.303Z,-3.30
2022-12-23T17:54:07.285Z,-3.20
2022-12-23T17:56:34.189Z,-3.20
2022-12-23T17:59:01.044Z,-3.30
2022-12-23T18:01:29.910Z,-3.30
2022-12-23T18:03:57.606Z,-3.30
2022-12-23T18:06:25.012Z,-3.50
2022-12-23T18:08:51.935Z,-3.50
2022-12-23T18:11:28.029Z,-3.50
2022-12-23T18:13:54.903Z,-3.50
2022-12-23T18:16:21.818Z,-3.60
2022-12-23T18:18:48.746Z,-3.50
2022-12-23T18:21:21.983Z,-3.60
2022-12-23T18:23:48.875Z,-3.70
2022-12-23T18:26:16.494Z,-3.80
2022-12-23T18:28:43.995Z,-3.80
2022-12-23T18:31:21.771Z,-3.80
2022-12-23T18:33:48.700Z,-3.80
2022-12-23T18:36:21.520Z,-3.80
2022-12-23T18:38:48.503Z,-3.80
2022-12-23T18:41:15.481Z,-3.80
2022-12-23T18:43:42.370Z,-3.90
2022-12-23T18:46:09.849Z,-3.90
2022-12-23T18:48:36.941Z,-3.90
2022-12-23T18:51:03.904Z,-4.00
2022-12-23T18:53:31.262Z,-4.10
2022-12-23T18:55:58.562Z,-4.00
2022-12-23T18:58:25.658Z,-4.00
2022-12-23T19:00:55.891Z,-4.00
2022-12-23T19:03:24.417Z,-4.00
2022-12-23T19:05:52.468Z,-4.10
2022-12-23T19:08:27.180Z,-4.00
2022-12-23T19:10:55.450Z,-4.10
2022-12-23T19:13:22.472Z,-4.00
2022-12-23T19:15:49.572Z,-4.10
2022-12-23T19:18:17.751Z,-4.00
2022-12-23T19:20:45.560Z,-4.00
2022-12-23T19:23:13.570Z,-4.10
2022-12-23T19:25:41.795Z,-4.10
2022-12-23T19:28:09.008Z,-4.10
2022-12-23T19:30:36.080Z,-4.20
2022-12-23T19:33:03.089Z,-4.20
2022-12-23T19:35:29.929Z,-4.20
2022-12-23T19:37:56.896Z,-4.30
2022-12-23T19:40:23.792Z,-4.30
2022-12-23T19:42:50.905Z,-4.30
2022-12-23T19:45:17.993Z,-4.50
2022-12-23T19:47:44.960Z,-4.40
2022-12-23T19:50:12.193Z,-4.40
2022-12-23T19:52:39.141Z,-4.40
2022-12-23T19:55:06.201Z,-4.50
2022-12-23T19:57:33.837Z,-4.50
2022-12-23T20:00:02.290Z,-4.40
2022-12-23T20:02:29.227Z,-4.50
2022-12-23T20:04:56.111Z,-4.50
2022-12-23T20:07:23.077Z,-4.50
2022-12-23T20:09:49.932Z,-4.50
2022-12-23T20:12:16.795Z,-4.60
2022-12-23T20:14:43.683Z,-4.60
2022-12-23T20:17:10.566Z,-4.70
2022-12-23T20:19:45.487Z,-4.60
2022-12-23T20:22:12.899Z,-4.70
2022-12-23T20:24:41.102Z,-4.70
2022-12-23T20:27:11.996Z,-4.70
2022-12-23T20:29:40.141Z,-4.70
2022-12-23T20:32:07.034Z,-4.70
2022-12-23T20:34:39.198Z,-4.70
2022-12-23T20:37:07.117Z,-4.70
2022-12-23T20:39:34.581Z,-4.70
2022-12-23T20:42:01.524Z,-4.70
2022-12-23T20:44:37.105Z,-4.70
2022-12-23T20:47:07.903Z,-4.60
2022-12-23T20:49:34.845Z,-4.50
2022-12-23T20:52:01.818Z,-4.50
2022-12-23T20:54:33.377Z,-4.50
2022-12-23T20:57:05.050Z,-4.50
2022-12-23T20:59:31.965Z,-4.50
2022-12-23T21:01:59.491Z,-4.40
2022-12-23T21:04:27.037Z,-4.30
2022-12-23T21:06:53.944Z,-4.30
2022-12-23T21:09:20.914Z,-4.30
2022-12-23T21:11:48.087Z,-4.30
2022-12-23T21:14:17.553Z,-4.30
2022-12-23T21:16:44.493Z,-4.30
2022-12-23T21:19:16.657Z,-4.30
2022-12-23T21:21:43.737Z,-4.30
2022-12-23T21:24:11.028Z,-4.30
2022-12-23T21:26:38.268Z,-4.20
2022-12-23T21:29:06.825Z,-4.30
2022-12-23T21:31:34.768Z,-4.30
2022-12-23T21:34:02.371Z,-4.40
2022-12-23T21:36:31.186Z,-4.40
2022-12-23T21:38:58.979Z,-4.50
2022-12-23T21:41:30.589Z,-4.50
2022-12-23T21:43:58.007Z,-4.50
2022-12-23T21:46:25.437Z,-4.50
2022-12-23T21:48:52.408Z,-4.50
2022-12-23T21:51:20.468Z,-4.60
2022-12-23T21:53:48.661Z,-4.60
2022-12-23T21:56:17.150Z,-4.60
2022-12-23T21:58:44.200Z,-4.70
2022-12-23T22:01:12.663Z,-4.70
2022-12-23T22:03:39.590Z,-4.70
2022-12-23T22:06:10.422Z,-4.80
2022-12-23T22:08:37.947Z,-4.80
2022-12-23T22:11:08.686Z,-4.80
2022-12-23T22:13:36.078Z,-4.80
2022-12-23T22:16:03.934Z,-4.70
2022-12-23T22:18:31.541Z,-4.80
2022-12-23T22:20:58.434Z,-4.80
2022-12-23T22:23:25.491Z,-4.80
2022-12-23T22:25:53.541Z,-4.80
2022-12-23T22:28:28.590Z,-4.90
2022-12-23T22:31:00.713Z,-4.80
2022-12-23T22:33:27.543Z,-4.80
2022-12-23T22:35:55.788Z,-4.90
2022-12-23T22:38:23.045Z,-4.90
2022-12-23T22:40:50.787Z,-4.90
2022-12-23T22:43:18.093Z,-5.00
2022-12-23T22:45:45.636Z,-4.90
2022-12-23T22:48:12.974Z,-4.90
2022-12-23T22:50:39.894Z,-4.90
2022-12-23T22:53:06.897Z,-4.90
2022-12-23T22:55:34.071Z,-5.00
2022-12-23T22:58:01.041Z,-5.10
2022-12-23T23:00:28.749Z,-5.10
2022-12-23T23:02:55.841Z,-5.20
2022-12-23T23:05:22.887Z,-5.20
2022-12-23T23:07:49.834Z,-5.20
2022-12-23T23:10:17.300Z,-5.20
2022-12-23T23:12:44.666Z,-5.20
2022-12-23T23:15:11.603Z,-5.30
2022-12-23T23:17:38.593Z,-5.40
2022-12-23T23:20:06.636Z,-5.40
2022-12-23T23:22:33.641Z,-5.40
2022-12-23T23:25:00.562Z,-5.40
2022-12-23T23:27:27.654Z,-5.40
2022-12-23T23:29:54.504Z,-5.30
2022-12-23T23:32:21.846Z,-5.40
2022-12-23T23:34:48.905Z,-5.50
2022-12-23T23:37:15.740Z,-5.50
2022-12-23T23:39:42.844Z,-5.50
2022-12-23T23:42:09.915Z,-5.50
2022-12-23T23:44:36.747Z,-5.60
2022-12-23T23:47:03.648Z,-5.50
2022-12-23T23:49:30.573Z,-5.50
2022-12-23T23:51:57.395Z,-5.60
2022-12-23T23:54:24.515Z,-5.50
2022-12-23T23:56:51.833Z,-5.50
2022-12-23T23:59:18.759Z,-5.50
